Terminal Aerodrome Forecast
Issued by NWS Albuquerque, NM

Home | Current Version | Previous Version | Text Only | Print | Product List | Glossary On
Versions: 1 2 3 4 5 6 7 8 9 10 11 12 13 14 15 16 17
000
FTUS45 KABQ 281100 RRA
TAFABQ
TAF
KABQ 281141Z 2812/2912 35007KT P6SM FEW070 SCT120
     FM281500 06008KT P6SM VCSH SCT080 BKN120
     FM281800 13008KT P6SM SCT080 BKN120
     FM282100 17013KT P6SM VCTS SCT080CB BKN110
     FM290100 09010KT P6SM VCSH BKN100=

USA.gov is the U.S. government's official web portal to all federal, state and local government web resources and services.